Overview Statistics Trail Chart Weather Telemetry Raw packets
 

This is the latest recevied weather packets stored in our database for station/object LKVO. If no packets are shown the sender has not sent any weather packets the latest 10 day(s).

<< 1 2 3 >>
Time Temp. Humidity Pressure Rain* Wind** Luminosity Snow
1787918649 27.78° C 45% 1012 hPa - - - -
1787915049 27.22° C 47% 1012 hPa - - - -
1787911450 26.11° C 47% 1011 hPa - - - -
1787907784 25° C 50% 1013 hPa - - - -
1787904249 22.22° C 60% 1014 hPa - - - -
1787900710 20° C 64% 1014 hPa - - - -
1787899143 18.89° C 68% 1014 hPa - - - -
1787839270 27.22° C 44% 1017 hPa - - - -
1787835783 27.22° C 44% 1017 hPa - - - -
1787832133 26.11° C 47% 1018 hPa - - - -
1787828649 25° C 47% 1018 hPa - - - -
1787825163 22.78° C 53% 1019 hPa - - - -
1787821331 21.11° C 60% 1019 hPa - - - -
1787817849 18.89° C 68% 1019 hPa - - - -
1787814133 17.22° C 77% 1019 hPa - - - -
1787812562 16.11° C 82% 1019 hPa - - - -
1787749510 22.22° C 56% 1019 hPa - - - -
1787745850 21.11° C 60% 1019 hPa - - - -
1787742250 20° C 60% 1019 hPa - - - -
1787738763 18.89° C 68% 1019 hPa - - - -
1787734939 17.22° C 77% 1019 hPa - - - -
1787731448 16.11° C 82% 1019 hPa - - - -
1787727783 15° C 87% 1018 hPa - - - -
1787726163 15° C 87% 1018 hPa - - - -
1787666582 21.11° C 52% 1015 hPa - - - -

* Rain since midnight (hover to see other rain measurements)
** Current wind speed in m/s (hover to see current wind gust speed)